Time;durP1;ratioP1;P1;durP2;ratioP2;P2;SDS_P1;SDS_P2;PMS_P1;PMS_P2;Temp;Humidity;BMP_temperature;BMP_pressure;BME280_temperature;BME280_humidity;BME280_pressure;Samples;Min_cycle;Max_cycle;Signal;HPM_P1;HPM_P2
2020/12/30 00:00:01;;;;;;;27.54;6.84;;;;;;;7.58;78.36;99078.34;330441;109;1962830;-72
2020/12/30 00:01:10;;;;;;;29.52;7.53;;;;;;;7.59;78.57;99087.23;360861;109;1961984;-73
2020/12/30 00:02:15;;;;;;;34.07;7.66;;;;;;;7.64;78.42;99088.28;342058;109;2261959;-71
2020/12/30 00:03:23;;;;;;;30.39;6.71;;;;;;;7.66;78.34;99091.61;360195;109;1961970;-72
2020/12/30 00:04:28;;;;;;;37.24;7.83;;;;;;;7.67;78.26;99095.12;360845;109;1962079;-71
2020/12/30 00:05:33;;;;;;;27.76;6.38;;;;;;;7.70;78.30;99092.88;359558;109;1961984;-72
2020/12/30 00:06:39;;;;;;;25.16;6.88;;;;;;;7.75;77.97;99103.00;359613;109;1961746;-72
2020/12/30 00:07:45;;;;;;;31.49;6.39;;;;;;;7.77;77.76;99103.64;359766;109;1961954;-72
2020/12/30 00:08:50;;;;;;;30.96;6.36;;;;;;;7.77;77.71;99105.50;326143;109;2559038;-71
2020/12/30 00:09:56;;;;;;;41.29;6.78;;;;;;;7.75;77.82;99103.00;329142;109;1962091;-72
2020/12/30 00:11:01;;;;;;;39.51;6.69;;;;;;;7.73;77.90;99102.41;353195;109;1963032;-72
2020/12/30 00:12:06;;;;;;;30.52;6.53;;;;;;;7.73;78.06;99098.86;361486;110;1961929;-72
2020/12/30 00:13:12;;;;;;;35.64;6.92;;;;;;;7.71;78.12;99107.97;360039;109;1961985;-71
2020/12/30 00:14:18;;;;;;;37.42;7.02;;;;;;;7.75;78.05;99105.69;363029;111;1961981;-71
2020/12/30 00:15:23;;;;;;;30.71;5.47;;;;;;;7.76;78.05;99106.55;361181;109;1962978;-71
2020/12/30 00:16:28;;;;;;;31.86;6.02;;;;;;;7.76;77.95;99104.68;358897;110;1963020;-72
2020/12/30 00:17:38;;;;;;;21.97;6.14;;;;;;;7.77;77.98;99102.81;359988;109;1961995;-71
2020/12/30 00:18:43;;;;;;;28.71;6.11;;;;;;;7.77;77.92;99106.33;360004;109;1961993;-70
2020/12/30 00:19:49;;;;;;;28.22;6.34;;;;;;;7.76;77.96;99106.55;360722;109;1961996;-73
2020/12/30 00:20:56;;;;;;;28.40;5.88;;;;;;;7.73;78.12;99105.09;327093;109;1962028;-73
2020/12/30 00:22:06;;;;;;;33.80;6.71;;;;;;;7.71;78.27;99110.66;361194;111;1963049;-71
2020/12/30 00:23:11;;;;;;;28.11;6.55;;;;;;;7.68;78.41;99104.86;331852;109;1960705;-71
2020/12/30 00:24:16;;;;;;;27.96;5.98;;;;;;;7.69;78.37;99101.95;352498;109;1963932;-72
2020/12/30 00:25:22;;;;;;;33.16;6.08;;;;;;;7.71;78.31;99102.59;359854;109;1963929;-70
2020/12/30 00:26:27;;;;;;;27.46;5.73;;;;;;;7.73;78.16;99105.09;361887;111;1961907;-73
2020/12/30 00:27:33;;;;;;;29.08;5.78;;;;;;;7.69;78.24;99111.89;359753;109;1961985;-72
2020/12/30 00:28:38;;;;;;;29.25;6.57;;;;;;;7.68;78.23;99111.06;359669;109;1962926;-72
2020/12/30 00:29:44;;;;;;;27.01;5.91;;;;;;;7.64;78.45;99109.79;359519;109;1962004;-72
2020/12/30 00:30:50;;;;;;;25.79;5.93;;;;;;;7.62;78.72;99109.19;359541;109;1961996;-73
2020/12/30 00:31:57;;;;;;;22.54;6.29;;;;;;;7.63;78.83;99116.20;320119;109;2684962;-72
2020/12/30 00:33:02;;;;;;;31.74;7.06;;;;;;;7.63;78.92;99104.63;359927;109;1961933;-71
2020/12/30 00:34:07;;;;;;;22.78;5.47;;;;;;;7.64;78.75;99101.73;359756;111;1961978;-71
2020/12/30 00:35:15;;;;;;;23.62;6.28;;;;;;;7.68;78.83;99097.62;361357;111;1961962;-71
2020/12/30 00:36:22;;;;;;;28.05;6.58;;;;;;;7.68;78.84;99100.31;325643;112;2888050;-72
2020/12/30 00:37:27;;;;;;;23.74;6.84;;;;;;;7.71;78.62;99089.15;361312;109;1964921;-72
2020/12/30 00:38:32;;;;;;;21.76;5.43;;;;;;;7.72;78.60;99095.34;359366;109;1962036;-72
2020/12/30 00:39:37;;;;;;;22.50;6.71;;;;;;;7.73;78.74;99091.65;359634;109;1963951;-73
2020/12/30 00:40:44;;;;;;;25.71;5.75;;;;;;;7.75;78.74;99092.25;359556;109;1961990;-72
2020/12/30 00:41:54;;;;;;;29.10;6.66;;;;;;;7.78;78.65;99096.39;358462;109;1961876;-72
2020/12/30 00:42:59;;;;;;;28.25;6.53;;;;;;;7.78;78.57;99099.09;359042;110;1962021;-72
2020/12/30 00:44:04;;;;;;;31.77;6.81;;;;;;;7.79;78.52;99096.20;358155;111;1961972;-71
2020/12/30 00:45:10;;;;;;;30.49;6.07;;;;;;;7.81;78.49;99098.71;358820;110;1963991;-72
2020/12/30 00:46:17;;;;;;;20.66;6.64;;;;;;;7.85;78.45;99097.25;360739;111;1962985;-72
2020/12/30 00:47:28;;;;;;;26.23;6.57;;;;;;;7.86;78.34;99096.24;358869;111;1962006;-72
2020/12/30 00:48:33;;;;;;;27.61;6.43;;;;;;;7.86;78.17;99096.24;359332;109;1962001;-71
2020/12/30 00:49:39;;;;;;;32.21;6.49;;;;;;;7.83;78.19;99102.00;358252;110;1963922;-72
2020/12/30 00:50:45;;;;;;;23.77;5.83;;;;;;;7.82;78.33;99100.36;360628;112;1961980;-72
2020/12/30 00:51:53;;;;;;;24.19;6.52;;;;;;;7.83;78.14;99093.94;314085;109;2801042;-72
2020/12/30 00:52:59;;;;;;;33.38;7.11;;;;;;;7.83;78.25;99097.48;359191;112;1961984;-72
2020/12/30 00:54:04;;;;;;;24.81;6.96;;;;;;;7.84;78.09;99096.44;361162;112;1962978;-71
2020/12/30 00:55:13;;;;;;;23.39;7.19;;;;;;;7.83;77.91;99100.16;357467;109;1962028;-72
2020/12/30 00:56:25;;;;;;;30.87;7.63;;;;;;;7.86;77.94;99098.94;358205;110;1961967;-72
2020/12/30 00:57:31;;;;;;;34.40;7.83;;;;;;;7.81;77.79;99093.33;309787;113;2684984;-71
2020/12/30 00:58:38;;;;;;;23.89;7.31;;;;;;;7.77;78.16;99098.27;339372;111;1961960;-72
2020/12/30 00:59:44;;;;;;;24.27;7.06;;;;;;;7.79;78.33;99098.08;350121;113;1962198;-72
2020/12/30 01:01:06;;;;;;;27.91;7.20;;;;;;;7.80;78.24;99095.17;361188;109;1961949;-71
2020/12/30 01:02:30;;;;;;;26.11;6.71;;;;;;;7.83;77.97;99100.16;352192;114;1962014;-72
2020/12/30 01:03:39;;;;;;;28.36;6.67;;;;;;;7.82;77.93;99101.17;324981;112;2478868;-72
2020/12/30 01:04:44;;;;;;;23.21;6.22;;;;;;;7.79;77.96;99104.27;361167;111;1962025;-71
2020/12/30 01:05:49;;;;;;;22.91;5.95;;;;;;;7.80;77.99;99097.03;362365;110;1964026;-73
2020/12/30 01:06:56;;;;;;;28.12;4.78;;;;;;;7.77;77.86;99102.81;360702;111;1963929;-73
2020/12/30 01:08:02;;;;;;;20.05;5.59;;;;;;;7.78;77.73;99097.25;351642;110;2927372;-72
2020/12/30 01:09:07;;;;;;;30.13;5.99;;;;;;;7.82;77.47;99095.80;348175;110;1962005;-72
2020/12/30 01:10:13;;;;;;;22.36;5.96;;;;;;;7.77;77.67;99097.44;360343;111;1961926;-71
2020/12/30 01:11:30;;;;;;;18.68;5.37;;;;;;;7.74;77.79;99097.84;361399;111;1963949;-73
2020/12/30 01:12:38;;;;;;;23.96;6.11;;;;;;;7.75;77.71;99100.31;359154;111;1961959;-72
2020/12/30 01:13:44;;;;;;;24.59;5.74;;;;;;;7.68;77.95;99097.62;360631;110;1961964;-72
2020/12/30 01:14:49;;;;;;;27.08;6.49;;;;;;;7.64;78.16;99093.66;359929;111;1961902;-72
2020/12/30 01:15:54;;;;;;;25.91;6.24;;;;;;;7.65;78.09;99097.20;360288;111;1963032;-71
2020/12/30 01:17:00;;;;;;;20.97;6.62;;;;;;;7.63;78.13;99094.70;360533;111;1961995;-72
2020/12/30 01:18:06;;;;;;;17.33;6.20;;;;;;;7.65;78.45;99105.27;360819;110;1964898;-73
2020/12/30 01:19:12;;;;;;;20.75;5.75;;;;;;;7.67;78.71;99103.19;316493;110;2756927;-72
2020/12/30 01:20:19;;;;;;;25.87;6.29;;;;;;;7.73;78.36;99107.78;360880;111;1961987;-72
2020/12/30 01:21:24;;;;;;;19.84;5.48;;;;;;;7.77;78.03;99113.57;360296;110;1961968;-73
2020/12/30 01:22:29;;;;;;;15.34;5.34;;;;;;;7.76;77.74;99128.05;359379;111;1963891;-71
2020/12/30 01:23:36;;;;;;;15.63;4.99;;;;;;;7.77;77.88;99122.46;359457;111;1961980;-73
2020/12/30 01:24:42;;;;;;;21.93;5.31;;;;;;;7.79;77.75;99122.27;359973;110;1967591;-72
2020/12/30 01:25:55;;;;;;;16.67;5.58;;;;;;;7.79;77.69;99123.09;321428;110;1963946;-72
2020/12/30 01:27:02;;;;;;;12.89;4.94;;;;;;;7.76;77.68;99123.50;361206;111;1961972;-72
2020/12/30 01:28:07;;;;;;;14.81;4.39;;;;;;;7.76;77.81;99120.81;303451;111;2120004;-72
2020/12/30 01:29:13;;;;;;;17.25;5.14;;;;;;;7.77;77.86;99124.33;332326;111;1962933;-72
2020/12/30 01:30:19;;;;;;;16.26;4.75;;;;;;;7.77;77.84;99121.64;359588;111;1961975;-72
2020/12/30 01:31:28;;;;;;;15.29;4.84;;;;;;;7.80;77.85;99115.85;359937;111;1962035;-72
2020/12/30 01:32:33;;;;;;;18.66;5.51;;;;;;;7.85;77.50;99114.21;363755;111;1961940;-73
2020/12/30 01:33:38;;;;;;;17.19;5.08;;;;;;;7.88;77.37;99121.05;361078;110;1961930;-71
2020/12/30 01:34:44;;;;;;;11.37;5.21;;;;;;;7.86;77.29;99115.89;362662;110;1963076;-72
2020/12/30 01:35:49;;;;;;;14.42;5.53;;;;;;;7.84;77.27;99115.25;362623;106;1960713;-72
2020/12/30 01:36:56;;;;;;;11.37;4.72;;;;;;;7.84;77.45;99119.81;360715;106;1960710;-72
2020/12/30 01:38:02;;;;;;;14.56;5.33;;;;;;;7.87;77.32;99119.41;311190;111;2866708;-72
2020/12/30 01:39:08;;;;;;;12.01;5.02;;;;;;;7.85;77.50;99124.14;322496;109;1960825;-73
2020/12/30 01:40:14;;;;;;;11.11;4.87;;;;;;;7.84;77.58;99125.19;361184;108;1960831;-72
2020/12/30 01:41:20;;;;;;;10.04;5.21;;;;;;;7.86;77.63;99125.83;365550;111;1960783;-72
2020/12/30 01:42:27;;;;;;;10.04;5.17;;;;;;;7.87;77.68;99128.30;363181;110;1960886;-72
2020/12/30 01:43:33;;;;;;;10.99;5.35;;;;;;;7.89;77.69;99131.62;330988;106;2496705;-72
2020/12/30 01:44:38;;;;;;;12.13;5.36;;;;;;;7.92;77.57;99127.70;337018;113;1962978;-71
2020/12/30 01:45:43;;;;;;;11.27;5.45;;;;;;;7.93;77.48;99129.34;357302;111;1961054;-72
2020/12/30 01:46:51;;;;;;;11.48;5.26;;;;;;;7.92;77.42;99125.01;359418;113;1961011;-73
2020/12/30 01:47:57;;;;;;;8.75;4.94;;;;;;;7.92;77.60;99117.77;359832;111;1962060;-72
2020/12/30 01:49:06;;;;;;;9.73;5.46;;;;;;;7.95;77.63;99115.70;331342;111;2481887;-72
2020/12/30 01:50:14;;;;;;;9.89;4.93;;;;;;;7.96;77.68;99120.86;312941;112;2783984;-72
2020/12/30 01:51:20;;;;;;;10.57;5.20;;;;;;;7.90;77.58;99106.38;357616;111;1961020;-72
2020/12/30 01:52:27;;;;;;;10.67;5.59;;;;;;;7.96;77.41;99111.97;361659;111;1961928;-72
2020/12/30 01:53:33;;;;;;;11.23;5.16;;;;;;;7.99;77.60;99117.80;318117;111;2728939;-72
2020/12/30 01:54:38;;;;;;;10.66;5.38;;;;;;;7.98;77.57;99115.30;327625;111;1963007;-72
2020/12/30 01:55:43;;;;;;;10.20;5.11;;;;;;;7.99;77.72;99106.19;336314;110;1962915;-72
2020/12/30 01:56:49;;;;;;;9.93;5.27;;;;;;;8.01;77.85;99107.64;361069;111;1961951;-72
2020/12/30 01:57:54;;;;;;;10.84;5.46;;;;;;;8.03;77.68;99102.07;361268;111;1961981;-72
2020/12/30 01:59:03;;;;;;;12.09;6.00;;;;;;;8.05;77.59;99100.02;359728;111;1961968;-72
2020/12/30 02:00:09;;;;;;;11.28;5.87;;;;;;;8.06;77.58;99102.48;331280;111;1961946;-73
2020/12/30 02:01:14;;;;;;;9.98;5.64;;;;;;;8.10;77.85;99097.55;364705;111;1961902;-72
2020/12/30 02:02:26;;;;;;;11.87;6.32;;;;;;;8.14;77.87;99093.39;359728;111;1962942;-72
2020/12/30 02:03:31;;;;;;;10.26;5.48;;;;;;;8.15;77.24;99098.59;358504;110;1961912;-72
2020/12/30 02:04:50;;;;;;;10.85;6.37;;;;;;;8.18;77.41;99102.73;360379;110;1961991;-72
2020/12/30 02:05:57;;;;;;;11.67;6.24;;;;;;;8.20;77.30;99094.44;362254;111;1961913;-71
2020/12/30 02:07:02;;;;;;;9.76;6.20;;;;;;;8.20;77.12;99097.95;360730;111;1962026;-71
2020/12/30 02:08:09;;;;;;;11.37;5.95;;;;;;;8.21;77.17;99098.80;360180;111;1961987;-72
2020/12/30 02:09:15;;;;;;;12.57;6.46;;;;;;;8.24;77.27;99098.39;352980;111;1961891;-72
2020/12/30 02:10:23;;;;;;;11.38;6.07;;;;;;;8.25;77.24;99100.86;365425;111;1961992;-71
2020/12/30 02:11:30;;;;;;;12.42;6.01;;;;;;;8.25;77.17;99095.48;341787;111;2307930;-72
2020/12/30 02:12:38;;;;;;;10.72;6.19;;;;;;;8.29;76.99;99096.73;360861;111;1961036;-71
2020/12/30 02:13:44;;;;;;;11.98;6.63;;;;;;;8.31;77.06;99088.47;329011;111;2533953;-73
2020/12/30 02:14:50;;;;;;;12.07;6.48;;;;;;;8.31;76.89;99093.86;331378;111;1961036;-73
2020/12/30 02:15:55;;;;;;;12.45;6.98;;;;;;;8.31;76.76;99099.23;362045;111;1963886;-73
2020/12/30 02:17:00;;;;;;;13.05;7.27;;;;;;;8.32;76.86;99090.94;364578;110;1962062;-71
2020/12/30 02:18:05;;;;;;;14.17;7.82;;;;;;;8.33;76.91;99091.77;363490;110;1961881;-72
2020/12/30 02:19:11;;;;;;;12.56;7.38;;;;;;;8.32;76.78;99095.50;361181;111;1961043;-72
2020/12/30 02:20:18;;;;;;;14.06;7.76;;;;;;;8.32;76.74;99096.33;360979;111;1960924;-72
2020/12/30 02:21:25;;;;;;;14.17;7.66;;;;;;;8.33;76.71;99102.53;352316;111;2950846;-72
2020/12/30 02:22:31;;;;;;;15.69;7.44;;;;;;;8.31;76.73;99093.86;361292;111;1962032;-72
2020/12/30 02:23:37;;;;;;;19.36;9.40;;;;;;;8.31;76.92;99091.98;360822;111;1961967;-70
2020/12/30 02:24:45;;;;;;;17.39;8.60;;;;;;;8.32;76.92;99098.19;365871;111;1960995;-72
2020/12/30 02:25:50;;;;;;;16.42;9.28;;;;;;;8.32;76.95;99098.19;311303;111;2076862;-73
2020/12/30 02:26:56;;;;;;;18.24;9.61;;;;;;;8.31;76.89;99100.06;351245;111;1961866;-73
2020/12/30 02:28:04;;;;;;;21.35;9.07;;;;;;;8.33;77.05;99097.97;361916;111;1963943;-72
2020/12/30 02:29:10;;;;;;;16.12;9.23;;;;;;;8.34;76.87;99096.95;322546;111;2650015;-71
2020/12/30 02:30:22;;;;;;;17.26;8.17;;;;;;;8.33;76.80;99095.27;354180;112;1962959;-72
2020/12/30 02:31:25;;;;;;;18.79;10.04;;;;;;;8.33;76.83;99092.59;333674;110;1962959;-71
2020/12/30 02:32:30;;;;;;;17.99;9.56;;;;;;;8.35;76.91;99092.39;333563;111;1961978;-73
2020/12/30 02:33:35;;;;;;;16.28;9.03;;;;;;;8.35;76.86;99089.70;339210;111;1962043;-72
2020/12/30 02:34:40;;;;;;;15.52;8.77;;;;;;;8.36;76.85;99099.42;353505;110;1961979;-73
2020/12/30 02:35:46;;;;;;;19.17;9.55;;;;;;;8.37;76.91;99098.41;354100;111;1962022;-73
2020/12/30 02:36:52;;;;;;;17.31;10.07;;;;;;;8.39;77.04;99096.38;360063;111;1962067;-71
2020/12/30 02:37:57;;;;;;;16.56;9.52;;;;;;;8.41;76.84;99091.59;360000;111;1962976;-72
2020/12/30 02:39:03;;;;;;;19.77;9.97;;;;;;;8.43;76.60;99094.09;361758;111;1961799;-73
2020/12/30 02:40:09;;;;;;;16.79;9.81;;;;;;;8.45;76.80;99086.65;362911;110;1962016;-72
2020/12/30 02:41:15;;;;;;;17.07;10.02;;;;;;;8.48;76.85;99084.36;343592;111;2324969;-71
2020/12/30 02:42:20;;;;;;;17.65;9.81;;;;;;;8.51;76.86;99091.20;329118;111;1961923;-72
2020/12/30 02:43:26;;;;;;;16.55;9.75;;;;;;;8.53;76.63;99083.75;334095;111;1961919;-72
2020/12/30 02:44:31;;;;;;;15.61;8.83;;;;;;;8.58;76.59;99100.11;337817;111;1962932;-73
2020/12/30 02:45:36;;;;;;;15.16;9.40;;;;;;;8.59;76.24;99090.98;343008;111;1961932;-72
2020/12/30 02:46:43;;;;;;;17.96;9.11;;;;;;;8.61;76.09;99094.30;361430;111;1961931;-71
2020/12/30 02:47:48;;;;;;;18.15;9.82;;;;;;;8.62;75.97;99098.64;359434;111;1962030;-73
2020/12/30 02:48:55;;;;;;;16.84;9.23;;;;;;;8.63;76.14;99103.02;358874;111;1962035;-72
2020/12/30 02:50:02;;;;;;;14.74;8.61;;;;;;;8.64;75.79;99098.45;311863;111;2821959;-72
2020/12/30 02:51:08;;;;;;;15.98;9.13;;;;;;;8.63;75.99;99097.62;360936;110;1962000;-72
2020/12/30 02:52:13;;;;;;;16.65;9.64;;;;;;;8.66;76.04;99097.20;361389;111;1961970;-72
2020/12/30 02:53:18;;;;;;;16.13;9.89;;;;;;;8.66;75.50;99091.00;364428;111;1961888;-71
2020/12/30 02:54:23;;;;;;;16.83;9.07;;;;;;;8.68;75.70;99097.84;359129;110;1962981;-72
2020/12/30 02:55:28;;;;;;;15.36;8.99;;;;;;;8.67;75.72;99090.77;359994;110;1961925;-72
2020/12/30 02:56:36;;;;;;;16.42;8.18;;;;;;;8.68;75.69;99088.91;314749;113;2761893;-72
2020/12/30 02:57:41;;;;;;;14.34;8.76;;;;;;;8.67;75.73;99087.27;327032;111;1961943;-72
2020/12/30 02:58:48;;;;;;;15.19;8.54;;;;;;;8.66;75.59;99088.31;337661;109;1961998;-71
2020/12/30 02:59:56;;;;;;;15.64;9.13;;;;;;;8.65;75.62;99090.15;369994;108;1961912;-71
2020/12/30 03:01:02;;;;;;;15.13;8.88;;;;;;;8.64;75.80;99090.38;329993;111;1966000;-72
2020/12/30 03:02:08;;;;;;;15.76;9.03;;;;;;;8.63;76.01;99084.16;359830;111;1961921;-72
2020/12/30 03:03:13;;;;;;;14.81;8.60;;;;;;;8.62;75.82;99081.67;365398;108;1961902;-72
2020/12/30 03:04:19;;;;;;;16.16;8.76;;;;;;;8.63;76.03;99080.65;367819;110;1963041;-73
2020/12/30 03:05:24;;;;;;;14.49;8.26;;;;;;;8.65;76.02;99076.69;370312;109;1961895;-72
2020/12/30 03:06:30;;;;;;;13.66;7.95;;;;;;;8.66;75.70;99074.84;361237;111;1964007;-72
2020/12/30 03:07:35;;;;;;;16.25;9.43;;;;;;;8.65;75.71;99076.69;360373;111;1961928;-72
2020/12/30 03:08:40;;;;;;;14.31;8.12;;;;;;;8.65;75.80;99073.99;364030;111;1962007;-72
2020/12/30 03:09:45;;;;;;;17.85;8.81;;;;;;;8.64;75.81;99068.83;360054;111;1963795;-72
2020/12/30 03:10:52;;;;;;;14.03;8.99;;;;;;;8.60;75.69;99071.13;318245;111;2786974;-73
2020/12/30 03:11:58;;;;;;;16.44;9.32;;;;;;;8.61;75.84;99070.08;364433;111;1961938;-72
2020/12/30 03:13:03;;;;;;;14.10;8.79;;;;;;;8.59;75.79;99066.75;364154;111;1961910;-71
2020/12/30 03:14:08;;;;;;;15.76;9.44;;;;;;;8.61;75.82;99063.87;364921;108;1962036;-72
2020/12/30 03:15:14;;;;;;;16.36;10.04;;;;;;;8.59;75.86;99067.58;366183;109;1961983;-72
2020/12/30 03:16:21;;;;;;;15.16;9.50;;;;;;;8.60;75.75;99071.13;364002;111;1961962;-73
2020/12/30 03:17:27;;;;;;;16.14;9.66;;;;;;;8.61;75.78;99071.95;357013;110;2940988;-71
2020/12/30 03:18:35;;;;;;;16.01;9.77;;;;;;;8.57;75.80;99072.37;364515;110;1964002;-72
2020/12/30 03:19:40;;;;;;;19.57;11.54;;;;;;;8.58;75.88;99060.55;364074;111;1961924;-72
2020/12/30 03:20:48;;;;;;;16.42;10.13;;;;;;;8.57;75.71;99064.29;296551;111;2233018;-72
2020/12/30 03:21:53;;;;;;;15.87;9.75;;;;;;;8.56;75.84;99061.80;331602;109;1961968;-71
2020/12/30 03:22:58;;;;;;;17.07;9.76;;;;;;;8.55;75.99;99054.77;332422;112;1962963;-71
2020/12/30 03:24:04;;;;;;;16.63;10.31;;;;;;;8.55;76.12;99057.45;355154;111;1961897;-73
2020/12/30 03:25:09;;;;;;;15.07;9.58;;;;;;;8.56;76.00;99059.10;365689;110;1961964;-72
2020/12/30 03:26:17;;;;;;;12.72;8.25;;;;;;;8.56;75.97;99068.00;370229;109;1962907;-71
2020/12/30 03:27:23;;;;;;;18.51;10.57;;;;;;;8.57;75.92;99058.05;330933;109;2896924;-71
2020/12/30 03:28:28;;;;;;;16.16;9.35;;;;;;;8.56;76.09;99065.30;333280;110;1961953;-71
2020/12/30 03:29:34;;;;;;;16.02;10.68;;;;;;;8.58;76.00;99063.23;354727;110;1961975;-73
2020/12/30 03:30:41;;;;;;;16.48;10.52;;;;;;;8.59;75.97;99059.50;366614;110;1962916;-72
2020/12/30 03:31:47;;;;;;;17.79;10.29;;;;;;;8.62;76.11;99062.82;365412;109;1962982;-71
2020/12/30 03:32:54;;;;;;;16.56;10.08;;;;;;;8.64;76.25;99060.76;363958;111;1962021;-71
2020/12/30 03:34:00;;;;;;;16.40;9.56;;;;;;;8.67;75.89;99063.03;358180;111;1962879;-71
2020/12/30 03:35:05;;;;;;;15.46;9.16;;;;;;;8.69;75.66;99059.09;360306;111;1962944;-69
2020/12/30 03:36:11;;;;;;;16.32;10.18;;;;;;;8.71;75.83;99061.59;362250;111;1963895;-72
2020/12/30 03:37:18;;;;;;;17.92;10.24;;;;;;;8.73;75.85;99054.96;364450;110;1961931;-72
2020/12/30 03:38:24;;;;;;;13.41;9.51;;;;;;;8.74;75.74;99059.30;355407;111;2953971;-72
2020/12/30 03:39:29;;;;;;;14.97;9.58;;;;;;;8.78;75.46;99057.82;360844;111;1965870;-72
2020/12/30 03:40:36;;;;;;;15.65;10.27;;;;;;;8.79;75.35;99059.50;368191;109;1961946;-72
2020/12/30 03:41:42;;;;;;;17.40;10.43;;;;;;;8.78;75.28;99057.82;365174;109;1961929;-72
2020/12/30 03:42:48;;;;;;;15.71;9.98;;;;;;;8.78;75.15;99052.44;368782;110;1961906;-72
2020/12/30 03:43:54;;;;;;;16.06;10.14;;;;;;;8.79;75.30;99050.59;327252;109;2675022;-72
2020/12/30 03:45:00;;;;;;;16.39;10.42;;;;;;;8.78;75.08;99049.74;342835;113;1962045;-73
2020/12/30 03:46:05;;;;;;;16.96;10.41;;;;;;;8.79;75.16;99055.98;356832;111;1962906;-72
2020/12/30 03:47:11;;;;;;;14.57;9.51;;;;;;;8.78;75.13;99044.36;364118;111;1963940;-72
2020/12/30 03:48:16;;;;;;;18.86;12.09;;;;;;;8.77;75.09;99049.97;365963;109;1962050;-72
2020/12/30 03:49:21;;;;;;;15.82;10.63;;;;;;;8.76;75.12;99043.77;363028;111;1961963;-72
2020/12/30 03:50:27;;;;;;;17.48;10.36;;;;;;;8.75;75.19;99046.66;360979;111;1962025;-72
2020/12/30 03:51:32;;;;;;;19.26;11.06;;;;;;;8.75;75.19;99046.66;362165;110;1962056;-72
2020/12/30 03:52:39;;;;;;;18.19;11.11;;;;;;;8.77;75.16;99042.72;366314;108;1961939;-72
2020/12/30 03:53:44;;;;;;;17.04;9.99;;;;;;;8.75;74.86;99041.27;363951;111;1961998;-72
2020/12/30 03:54:50;;;;;;;17.80;11.42;;;;;;;8.71;75.07;99051.64;357179;110;2912037;-71
2020/12/30 03:55:55;;;;;;;17.70;10.78;;;;;;;8.72;75.21;99053.28;330949;109;1961944;-71
2020/12/30 03:57:00;;;;;;;20.34;11.70;;;;;;;8.72;75.12;99049.77;344747;110;1961961;-72
2020/12/30 03:58:06;;;;;;;21.66;11.01;;;;;;;8.71;75.21;99048.95;356611;109;1961956;-72
2020/12/30 03:59:11;;;;;;;18.72;11.17;;;;;;;8.70;75.09;99049.14;367996;109;1962932;-72
2020/12/30 04:00:17;;;;;;;16.41;10.27;;;;;;;8.70;75.18;99041.06;360266;111;1961922;-72
2020/12/30 04:01:23;;;;;;;17.41;11.41;;;;;;;8.71;75.22;99037.35;360636;111;1961907;-73
2020/12/30 04:02:28;;;;;;;18.92;11.31;;;;;;;8.71;75.31;99042.73;362220;111;1961940;-73
2020/12/30 04:03:34;;;;;;;19.08;11.62;;;;;;;8.70;75.17;99043.75;360771;110;1962922;-72
2020/12/30 04:04:39;;;;;;;16.12;10.76;;;;;;;8.71;75.25;99045.44;360616;111;1961965;-72
2020/12/30 04:05:45;;;;;;;19.35;12.02;;;;;;;8.73;75.23;99046.02;359273;110;1962961;-71
2020/12/30 04:06:52;;;;;;;18.62;11.24;;;;;;;8.69;75.02;99053.70;333129;111;1963926;-72
2020/12/30 04:07:57;;;;;;;19.20;11.48;;;;;;;8.70;75.06;99059.91;362443;111;1962905;-72
2020/12/30 04:09:02;;;;;;;19.52;12.64;;;;;;;8.68;75.13;99057.45;357887;111;1962046;-74
2020/12/30 04:10:08;;;;;;;18.87;11.94;;;;;;;8.70;75.18;99066.12;357572;113;1961989;-72
2020/12/30 04:11:15;;;;;;;19.89;12.55;;;;;;;8.72;75.10;99063.23;360439;111;1963977;-71
2020/12/30 04:12:21;;;;;;;20.43;12.36;;;;;;;8.74;74.92;99067.38;319403;113;2657985;-72
2020/12/30 04:13:26;;;;;;;20.28;11.60;;;;;;;8.74;74.83;99061.16;328849;114;1961935;-73
2020/12/30 04:14:32;;;;;;;20.78;12.19;;;;;;;8.73;74.79;99064.88;335230;113;1962027;-73
2020/12/30 04:15:37;;;;;;;18.56;11.93;;;;;;;8.72;74.68;99057.84;349067;111;1962992;-72
2020/12/30 04:16:44;;;;;;;20.51;12.52;;;;;;;8.67;74.53;99061.16;358103;111;1963911;-72
2020/12/30 04:17:49;;;;;;;20.24;11.59;;;;;;;8.68;74.71;99061.98;359768;111;1961959;-72
2020/12/30 04:18:55;;;;;;;20.72;12.84;;;;;;;8.67;74.77;99063.84;360681;111;1962013;-72
2020/12/30 04:20:00;;;;;;;17.48;11.46;;;;;;;8.67;74.56;99060.33;357069;113;1964014;-72
2020/12/30 04:21:07;;;;;;;18.36;12.45;;;;;;;8.64;74.64;99063.45;344859;113;2951970;-72
2020/12/30 04:22:12;;;;;;;19.54;11.69;;;;;;;8.61;74.72;99064.69;322572;113;1962067;-72
2020/12/30 04:23:17;;;;;;;20.71;12.35;;;;;;;8.58;74.84;99065.94;344934;113;1962005;-72
2020/12/30 04:24:22;;;;;;;19.90;12.26;;;;;;;8.56;74.95;99059.10;352531;111;1963028;-73
2020/12/30 04:25:28;;;;;;;18.16;12.34;;;;;;;8.55;75.00;99070.92;363980;111;1961942;-72
2020/12/30 04:26:33;;;;;;;19.38;12.09;;;;;;;8.54;75.03;99066.55;364044;111;1964980;-72
2020/12/30 04:27:41;;;;;;;20.52;12.20;;;;;;;8.56;74.95;99070.69;364078;111;1964022;-71
2020/12/30 04:28:48;;;;;;;21.31;13.34;;;;;;;8.56;74.82;99070.69;329438;111;2485033;-73
2020/12/30 04:29:54;;;;;;;20.85;13.38;;;;;;;8.56;74.93;99076.08;361606;111;1961955;-72
2020/12/30 04:30:59;;;;;;;20.32;12.92;;;;;;;8.53;75.06;99079.19;359465;111;1961949;-72
2020/12/30 04:32:05;;;;;;;20.16;12.18;;;;;;;8.53;75.09;99068.42;361679;111;1962959;-72
2020/12/30 04:33:10;;;;;;;19.22;12.49;;;;;;;8.54;74.98;99075.45;360623;111;1961937;-72
2020/12/30 04:34:16;;;;;;;20.96;12.41;;;;;;;8.52;75.00;99069.47;357685;113;1961956;-72
2020/12/30 04:35:22;;;;;;;19.29;12.62;;;;;;;8.54;75.08;99061.98;343710;114;2937871;-72
2020/12/30 04:36:28;;;;;;;19.04;12.94;;;;;;;8.57;74.84;99061.59;356649;113;1962951;-72
2020/12/30 04:37:34;;;;;;;21.84;13.67;;;;;;;8.54;74.73;99061.98;357959;113;1961948;-72
2020/12/30 04:38:40;;;;;;;19.32;12.38;;;;;;;8.53;74.86;99068.42;359373;111;1961914;-72
2020/12/30 04:39:45;;;;;;;20.36;11.59;;;;;;;8.51;74.91;99059.72;362626;111;1961914;-71
2020/12/30 04:40:59;;;;;;;24.70;12.92;;;;;;;8.50;75.06;99066.15;318751;111;2698905;-72
2020/12/30 04:42:05;;;;;;;22.02;14.54;;;;;;;8.52;75.04;99069.47;360026;111;1961915;-72
2020/12/30 04:43:14;;;;;;;24.60;14.43;;;;;;;8.52;74.92;99074.00;359350;111;1961988;-72
2020/12/30 04:44:22;;;;;;;22.89;14.15;;;;;;;8.54;74.89;99074.62;359817;111;1961958;-72
2020/12/30 04:45:29;;;;;;;22.36;12.94;;;;;;;8.51;74.99;99065.09;313800;111;2821035;-72
2020/12/30 04:46:36;;;;;;;23.02;13.70;;;;;;;8.51;75.01;99058.89;354493;113;1962004;-72
2020/12/30 04:47:45;;;;;;;21.19;13.12;;;;;;;8.54;74.88;99061.16;360840;111;1960978;-72
2020/12/30 04:48:51;;;;;;;21.47;13.96;;;;;;;8.50;74.86;99060.77;357882;111;1961951;-73
2020/12/30 04:50:00;;;;;;;22.24;13.38;;;;;;;8.50;75.01;99060.77;293605;111;2253044;-73
2020/12/30 04:51:06;;;;;;;27.72;16.14;;;;;;;8.52;74.97;99060.53;357803;113;1962019;-73
2020/12/30 04:52:16;;;;;;;21.39;13.90;;;;;;;8.52;74.91;99063.23;359266;111;1962030;-72
2020/12/30 04:53:23;;;;;;;20.98;13.57;;;;;;;8.54;74.95;99055.78;357763;111;1962012;-72
2020/12/30 04:54:30;;;;;;;18.17;12.41;;;;;;;8.54;74.81;99063.86;290072;113;2251275;-71
2020/12/30 04:55:36;;;;;;;20.94;13.31;;;;;;;8.55;74.59;99066.35;357577;111;1963009;-72
2020/12/30 04:57:02;;;;;;;20.82;12.23;;;;;;;8.53;74.55;99060.34;361043;111;1961886;-73
2020/12/30 04:58:09;;;;;;;20.71;13.67;;;;;;;8.51;74.73;99067.79;360352;111;1961909;-71
2020/12/30 04:59:17;;;;;;;19.84;13.11;;;;;;;8.50;74.78;99068.84;361392;111;1961986;-72
2020/12/30 05:00:26;;;;;;;18.70;12.73;;;;;;;8.48;74.68;99078.16;332395;111;2502930;-72
2020/12/30 05:01:34;;;;;;;21.57;12.73;;;;;;;8.44;74.86;99075.06;360450;111;1962049;-72
2020/12/30 05:02:43;;;;;;;19.88;12.45;;;;;;;8.44;74.86;99066.98;344138;111;1961944;-72
2020/12/30 05:03:50;;;;;;;21.10;13.13;;;;;;;8.43;74.91;99069.87;321332;110;2601038;-72